sensor_id;sensor_type;location;lat;lon;timestamp;P1;durP1;ratioP1;P2;durP2;ratioP2
3873;SDS011;1952;50.872;6.692;2023-03-20T00:30:19;20.30;;;13.50;;
3873;SDS011;1952;50.872;6.692;2023-03-20T00:32:49;19.77;;;13.70;;
3873;SDS011;1952;50.872;6.692;2023-03-20T00:35:18;16.13;;;13.90;;
3873;SDS011;1952;50.872;6.692;2023-03-20T00:37:47;16.13;;;13.27;;
3873;SDS011;1952;50.872;6.692;2023-03-20T00:40:21;15.53;;;12.90;;
3873;SDS011;1952;50.872;6.692;2023-03-20T00:42:55;14.93;;;11.03;;
3873;SDS011;1952;50.872;6.692;2023-03-20T00:45:26;16.83;;;13.63;;
3873;SDS011;1952;50.872;6.692;2023-03-20T00:47:55;16.47;;;12.97;;
3873;SDS011;1952;50.872;6.692;2023-03-20T00:50:25;13.27;;;11.57;;
3873;SDS011;1952;50.872;6.692;2023-03-20T00:52:59;16.93;;;13.00;;
3873;SDS011;1952;50.872;6.692;2023-03-20T00:55:28;13.53;;;11.00;;
3873;SDS011;1952;50.872;6.692;2023-03-20T00:57:56;15.40;;;12.40;;
3873;SDS011;1952;50.872;6.692;2023-03-20T01:00:35;17.00;;;12.20;;
3873;SDS011;1952;50.872;6.692;2023-03-20T01:03:11;12.33;;;10.80;;
3873;SDS011;1952;50.872;6.692;2023-03-20T01:05:40;20.43;;;12.93;;
3873;SDS011;1952;50.872;6.692;2023-03-20T01:08:10;15.17;;;11.37;;
3873;SDS011;1952;50.872;6.692;2023-03-20T01:10:44;17.50;;;12.30;;
3873;SDS011;1952;50.872;6.692;2023-03-20T01:13:18;14.20;;;12.07;;
3873;SDS011;1952;50.872;6.692;2023-03-20T01:15:49;18.40;;;15.70;;
3873;SDS011;1952;50.872;6.692;2023-03-20T01:18:18;18.00;;;13.47;;
3873;SDS011;1952;50.872;6.692;2023-03-20T01:20:47;18.90;;;15.00;;
3873;SDS011;1952;50.872;6.692;2023-03-20T01:23:20;17.47;;;12.90;;
3873;SDS011;1952;50.872;6.692;2023-03-20T01:25:54;13.47;;;11.40;;
3873;SDS011;1952;50.872;6.692;2023-03-20T01:28:23;17.50;;;12.60;;
3873;SDS011;1952;50.872;6.692;2023-03-20T01:30:57;14.60;;;12.40;;
3873;SDS011;1952;50.872;6.692;2023-03-20T01:33:26;18.07;;;15.10;;
3873;SDS011;1952;50.872;6.692;2023-03-20T01:35:59;15.50;;;12.47;;
3873;SDS011;1952;50.872;6.692;2023-03-20T01:38:28;18.37;;;12.37;;
3873;SDS011;1952;50.872;6.692;2023-03-20T01:40:57;15.00;;;11.20;;
3873;SDS011;1952;50.872;6.692;2023-03-20T01:43:26;12.80;;;10.40;;
3873;SDS011;1952;50.872;6.692;2023-03-20T01:45:56;13.07;;;8.83;;
3873;SDS011;1952;50.872;6.692;2023-03-20T01:48:31;10.63;;;8.33;;
3873;SDS011;1952;50.872;6.692;2023-03-20T01:51:03;12.87;;;10.07;;
3873;SDS011;1952;50.872;6.692;2023-03-20T01:53:36;13.80;;;10.03;;
3873;SDS011;1952;50.872;6.692;2023-03-20T01:56:04;18.17;;;11.17;;
3873;SDS011;1952;50.872;6.692;2023-03-20T01:58:39;11.90;;;9.27;;
3873;SDS011;1952;50.872;6.692;2023-03-20T02:01:13;15.00;;;10.73;;
3873;SDS011;1952;50.872;6.692;2023-03-20T02:03:48;13.80;;;10.03;;
3873;SDS011;1952;50.872;6.692;2023-03-20T02:06:17;13.40;;;9.93;;
3873;SDS011;1952;50.872;6.692;2023-03-20T02:08:53;11.33;;;10.10;;
3873;SDS011;1952;50.872;6.692;2023-03-20T02:11:22;15.33;;;11.23;;
3873;SDS011;1952;50.872;6.692;2023-03-20T02:13:56;14.43;;;11.50;;
3873;SDS011;1952;50.872;6.692;2023-03-20T02:16:25;15.83;;;11.10;;
3873;SDS011;1952;50.872;6.692;2023-03-20T02:19:00;15.27;;;11.93;;
3873;SDS011;1952;50.872;6.692;2023-03-20T02:27:21;12.53;;;9.00;;
3873;SDS011;1952;50.872;6.692;2023-03-20T02:30:08;16.50;;;9.67;;
3873;SDS011;1952;50.872;6.692;2023-03-20T02:35:48;14.17;;;9.60;;
3873;SDS011;1952;50.872;6.692;2023-03-20T02:38:24;10.60;;;9.50;;
3873;SDS011;1952;50.872;6.692;2023-03-20T02:41:02;12.83;;;9.43;;
3873;SDS011;1952;50.872;6.692;2023-03-20T02:43:43;18.90;;;11.27;;
3873;SDS011;1952;50.872;6.692;2023-03-20T02:46:19;15.00;;;9.87;;
3873;SDS011;1952;50.872;6.692;2023-03-20T02:48:55;16.50;;;11.20;;
3873;SDS011;1952;50.872;6.692;2023-03-20T02:51:26;18.57;;;10.80;;
3873;SDS011;1952;50.872;6.692;2023-03-20T02:54:07;12.80;;;9.90;;
3873;SDS011;1952;50.872;6.692;2023-03-20T02:56:45;16.20;;;10.77;;
3873;SDS011;1952;50.872;6.692;2023-03-20T02:59:26;17.00;;;12.20;;
3873;SDS011;1952;50.872;6.692;2023-03-20T03:02:04;17.93;;;11.47;;
3873;SDS011;1952;50.872;6.692;2023-03-20T03:04:39;12.33;;;9.43;;
3873;SDS011;1952;50.872;6.692;2023-03-20T03:07:08;16.40;;;10.80;;
3873;SDS011;1952;50.872;6.692;2023-03-20T03:09:39;15.90;;;10.90;;
3873;SDS011;1952;50.872;6.692;2023-03-20T03:12:09;14.30;;;10.63;;
3873;SDS011;1952;50.872;6.692;2023-03-20T03:14:40;13.03;;;9.97;;
3873;SDS011;1952;50.872;6.692;2023-03-20T03:17:15;15.87;;;10.13;;
3873;SDS011;1952;50.872;6.692;2023-03-20T03:19:49;16.33;;;9.60;;
3873;SDS011;1952;50.872;6.692;2023-03-20T03:22:24;14.30;;;10.50;;
3873;SDS011;1952;50.872;6.692;2023-03-20T03:24:54;15.67;;;11.43;;
3873;SDS011;1952;50.872;6.692;2023-03-20T03:27:28;14.73;;;9.83;;
3873;SDS011;1952;50.872;6.692;2023-03-20T03:30:04;15.70;;;10.53;;
3873;SDS011;1952;50.872;6.692;2023-03-20T03:32:39;13.23;;;10.37;;
3873;SDS011;1952;50.872;6.692;2023-03-20T03:35:10;16.50;;;10.07;;
3873;SDS011;1952;50.872;6.692;2023-03-20T03:37:47;12.97;;;8.83;;
3873;SDS011;1952;50.872;6.692;2023-03-20T03:40:23;12.00;;;8.40;;
3873;SDS011;1952;50.872;6.692;2023-03-20T03:43:00;11.73;;;8.17;;
3873;SDS011;1952;50.872;6.692;2023-03-20T03:45:30;10.60;;;8.30;;
3873;SDS011;1952;50.872;6.692;2023-03-20T03:48:05;9.43;;;7.23;;
3873;SDS011;1952;50.872;6.692;2023-03-20T03:50:35;11.60;;;8.50;;
3873;SDS011;1952;50.872;6.692;2023-03-20T03:53:05;16.33;;;9.70;;
3873;SDS011;1952;50.872;6.692;2023-03-20T03:55:40;9.53;;;6.80;;
3873;SDS011;1952;50.872;6.692;2023-03-20T03:58:16;12.70;;;8.73;;
3873;SDS011;1952;50.872;6.692;2023-03-20T04:00:47;12.73;;;9.53;;
3873;SDS011;1952;50.872;6.692;2023-03-20T04:03:18;12.33;;;9.37;;
3873;SDS011;1952;50.872;6.692;2023-03-20T04:05:49;12.87;;;9.13;;
3873;SDS011;1952;50.872;6.692;2023-03-20T04:08:23;9.83;;;8.30;;
3873;SDS011;1952;50.872;6.692;2023-03-20T04:10:58;13.97;;;9.50;;
3873;SDS011;1952;50.872;6.692;2023-03-20T04:13:26;15.33;;;10.53;;
3873;SDS011;1952;50.872;6.692;2023-03-20T04:15:54;13.00;;;9.07;;
3873;SDS011;1952;50.872;6.692;2023-03-20T04:18:27;12.57;;;8.27;;
3873;SDS011;1952;50.872;6.692;2023-03-20T04:20:55;12.07;;;9.40;;
3873;SDS011;1952;50.872;6.692;2023-03-20T04:23:28;11.47;;;8.70;;
3873;SDS011;1952;50.872;6.692;2023-03-20T04:25:58;12.10;;;10.80;;
3873;SDS011;1952;50.872;6.692;2023-03-20T04:28:26;16.90;;;11.10;;
3873;SDS011;1952;50.872;6.692;2023-03-20T04:30:55;16.23;;;11.83;;
3873;SDS011;1952;50.872;6.692;2023-03-20T04:33:28;16.50;;;10.40;;
3873;SDS011;1952;50.872;6.692;2023-03-20T04:35:57;17.70;;;10.50;;
3873;SDS011;1952;50.872;6.692;2023-03-20T04:38:30;21.53;;;11.33;;
3873;SDS011;1952;50.872;6.692;2023-03-20T04:41:00;16.73;;;10.80;;
3873;SDS011;1952;50.872;6.692;2023-03-20T04:43:28;14.67;;;9.70;;
3873;SDS011;1952;50.872;6.692;2023-03-20T04:46:03;17.73;;;13.97;;
3873;SDS011;1952;50.872;6.692;2023-03-20T04:48:31;17.20;;;9.90;;
3873;SDS011;1952;50.872;6.692;2023-03-20T04:50:59;18.20;;;12.37;;
3873;SDS011;1952;50.872;6.692;2023-03-20T04:53:32;17.43;;;10.17;;
3873;SDS011;1952;50.872;6.692;2023-03-20T04:56:08;14.33;;;9.57;;
3873;SDS011;1952;50.872;6.692;2023-03-20T04:58:36;13.80;;;9.00;;
3873;SDS011;1952;50.872;6.692;2023-03-20T05:01:04;17.60;;;10.97;;
3873;SDS011;1952;50.872;6.692;2023-03-20T05:03:33;15.83;;;9.27;;
3873;SDS011;1952;50.872;6.692;2023-03-20T05:06:01;10.57;;;8.57;;
3873;SDS011;1952;50.872;6.692;2023-03-20T05:08:34;12.93;;;10.80;;
3873;SDS011;1952;50.872;6.692;2023-03-20T05:11:09;13.13;;;9.17;;
3873;SDS011;1952;50.872;6.692;2023-03-20T05:13:37;13.20;;;8.83;;
3873;SDS011;1952;50.872;6.692;2023-03-20T05:16:10;12.80;;;8.77;;
3873;SDS011;1952;50.872;6.692;2023-03-20T05:18:38;12.93;;;10.10;;
3873;SDS011;1952;50.872;6.692;2023-03-20T05:21:12;14.43;;;10.67;;
3873;SDS011;1952;50.872;6.692;2023-03-20T05:23:40;14.80;;;11.57;;
3873;SDS011;1952;50.872;6.692;2023-03-20T05:26:15;12.73;;;8.63;;
3873;SDS011;1952;50.872;6.692;2023-03-20T05:28:48;15.40;;;10.60;;
3873;SDS011;1952;50.872;6.692;2023-03-20T05:31:16;16.63;;;12.27;;
3873;SDS011;1952;50.872;6.692;2023-03-20T05:33:44;14.20;;;10.00;;
3873;SDS011;1952;50.872;6.692;2023-03-20T05:36:17;18.40;;;11.40;;
3873;SDS011;1952;50.872;6.692;2023-03-20T05:38:50;15.03;;;11.53;;
3873;SDS011;1952;50.872;6.692;2023-03-20T05:41:20;14.40;;;10.23;;
3873;SDS011;1952;50.872;6.692;2023-03-20T05:43:48;17.80;;;11.50;;
3873;SDS011;1952;50.872;6.692;2023-03-20T05:46:16;18.00;;;10.60;;
3873;SDS011;1952;50.872;6.692;2023-03-20T05:48:49;15.53;;;10.43;;
3873;SDS011;1952;50.872;6.692;2023-03-20T05:51:17;14.20;;;10.50;;
3873;SDS011;1952;50.872;6.692;2023-03-20T06:32:42;15.97;;;11.33;;
3873;SDS011;1952;50.872;6.692;2023-03-20T06:35:13;17.60;;;11.50;;
3873;SDS011;1952;50.872;6.692;2023-03-20T06:37:44;17.10;;;11.23;;
3873;SDS011;1952;50.872;6.692;2023-03-20T06:40:40;16.30;;;11.87;;
3873;SDS011;1952;50.872;6.692;2023-03-20T06:43:30;18.67;;;12.60;;
3873;SDS011;1952;50.872;6.692;2023-03-20T06:46:26;16.47;;;11.70;;
3873;SDS011;1952;50.872;6.692;2023-03-20T06:58:38;15.33;;;11.50;;
3873;SDS011;1952;50.872;6.692;2023-03-20T07:01:22;13.17;;;9.00;;
3873;SDS011;1952;50.872;6.692;2023-03-20T07:04:09;12.63;;;9.80;;
3873;SDS011;1952;50.872;6.692;2023-03-20T07:07:06;17.60;;;8.80;;
3873;SDS011;1952;50.872;6.692;2023-03-20T07:09:42;14.60;;;10.30;;
3873;SDS011;1952;50.872;6.692;2023-03-20T07:12:39;14.00;;;9.50;;
3873;SDS011;1952;50.872;6.692;2023-03-20T07:18:35;11.27;;;9.20;;
3873;SDS011;1952;50.872;6.692;2023-03-20T07:21:25;12.07;;;7.70;;
3873;SDS011;1952;50.872;6.692;2023-03-20T07:24:19;17.37;;;11.50;;
3873;SDS011;1952;50.872;6.692;2023-03-20T07:26:50;11.33;;;9.23;;
3873;SDS011;1952;50.872;6.692;2023-03-20T07:29:33;11.67;;;8.90;;
3873;SDS011;1952;50.872;6.692;2023-03-20T07:32:12;13.03;;;8.80;;
3873;SDS011;1952;50.872;6.692;2023-03-20T07:35:04;9.43;;;7.10;;
3873;SDS011;1952;50.872;6.692;2023-03-20T07:37:34;10.40;;;7.80;;
3873;SDS011;1952;50.872;6.692;2023-03-20T07:40:04;6.97;;;6.00;;
3873;SDS011;1952;50.872;6.692;2023-03-20T07:42:34;9.37;;;6.37;;
3873;SDS011;1952;50.872;6.692;2023-03-20T07:45:20;7.10;;;5.57;;
3873;SDS011;1952;50.872;6.692;2023-03-20T07:48:09;8.27;;;5.97;;
3873;SDS011;1952;50.872;6.692;2023-03-20T08:00:20;7.17;;;6.03;;
3873;SDS011;1952;50.872;6.692;2023-03-20T08:03:16;5.33;;;4.87;;
3873;SDS011;1952;50.872;6.692;2023-03-20T08:06:06;5.70;;;4.83;;
3873;SDS011;1952;50.872;6.692;2023-03-20T08:09:04;4.80;;;4.30;;
3873;SDS011;1952;50.872;6.692;2023-03-20T08:11:48;6.27;;;4.40;;
3873;SDS011;1952;50.872;6.692;2023-03-20T08:14:30;6.70;;;5.00;;
3873;SDS011;1952;50.872;6.692;2023-03-20T08:20:16;5.80;;;5.00;;
3873;SDS011;1952;50.872;6.692;2023-03-20T08:23:13;5.37;;;4.87;;
3873;SDS011;1952;50.872;6.692;2023-03-20T08:26:10;7.50;;;5.60;;
3873;SDS011;1952;50.872;6.692;2023-03-20T08:29:06;7.10;;;5.80;;
3873;SDS011;1952;50.872;6.692;2023-03-20T08:32:02;6.37;;;5.10;;
3873;SDS011;1952;50.872;6.692;2023-03-20T08:34:59;8.53;;;5.20;;
3873;SDS011;1952;50.872;6.692;2023-03-20T08:47:13;7.27;;;6.20;;
3873;SDS011;1952;50.872;6.692;2023-03-20T08:50:28;7.43;;;5.53;;
3873;SDS011;1952;50.872;6.692;2023-03-20T08:53:25;8.10;;;5.87;;
3873;SDS011;1952;50.872;6.692;2023-03-20T08:56:21;9.60;;;6.93;;
3873;SDS011;1952;50.872;6.692;2023-03-20T08:59:06;8.00;;;5.93;;
3873;SDS011;1952;50.872;6.692;2023-03-20T09:01:50;7.20;;;6.27;;
3873;SDS011;1952;50.872;6.692;2023-03-20T09:14:20;9.90;;;7.10;;
3873;SDS011;1952;50.872;6.692;2023-03-20T09:17:20;12.50;;;7.80;;
3873;SDS011;1952;50.872;6.692;2023-03-20T09:20:20;10.23;;;9.13;;
3873;SDS011;1952;50.872;6.692;2023-03-20T09:23:17;7.83;;;5.63;;
3873;SDS011;1952;50.872;6.692;2023-03-20T09:26:13;8.70;;;7.10;;
3873;SDS011;1952;50.872;6.692;2023-03-20T09:29:10;11.40;;;6.20;;
3873;SDS011;1952;50.872;6.692;2023-03-20T09:38:31;6.73;;;5.43;;
3873;SDS011;1952;50.872;6.692;2023-03-20T09:41:00;6.23;;;5.57;;
3873;SDS011;1952;50.872;6.692;2023-03-20T09:43:36;7.37;;;5.73;;
3873;SDS011;1952;50.872;6.692;2023-03-20T09:46:19;9.40;;;6.00;;
3873;SDS011;1952;50.872;6.692;2023-03-20T09:48:55;6.60;;;5.30;;
3873;SDS011;1952;50.872;6.692;2023-03-20T09:51:27;6.37;;;4.60;;
3873;SDS011;1952;50.872;6.692;2023-03-20T09:54:00;4.93;;;4.30;;
3873;SDS011;1952;50.872;6.692;2023-03-20T09:56:35;4.50;;;4.10;;
3873;SDS011;1952;50.872;6.692;2023-03-20T09:59:04;3.53;;;3.17;;
3873;SDS011;1952;50.872;6.692;2023-03-20T10:01:34;5.30;;;4.07;;
3873;SDS011;1952;50.872;6.692;2023-03-20T10:04:10;5.13;;;4.10;;
3873;SDS011;1952;50.872;6.692;2023-03-20T10:06:38;6.70;;;4.77;;
3873;SDS011;1952;50.872;6.692;2023-03-20T10:09:20;5.00;;;4.20;;
3873;SDS011;1952;50.872;6.692;2023-03-20T10:11:55;4.83;;;3.80;;
3873;SDS011;1952;50.872;6.692;2023-03-20T10:14:27;4.90;;;3.83;;
3873;SDS011;1952;50.872;6.692;2023-03-20T10:17:09;7.20;;;3.70;;
3873;SDS011;1952;50.872;6.692;2023-03-20T10:19:42;6.00;;;3.77;;
3873;SDS011;1952;50.872;6.692;2023-03-20T10:22:13;4.60;;;3.47;;
3873;SDS011;1952;50.872;6.692;2023-03-20T10:24:47;2.70;;;2.43;;
3873;SDS011;1952;50.872;6.692;2023-03-20T10:27:28;5.97;;;2.90;;
3873;SDS011;1952;50.872;6.692;2023-03-20T10:30:14;4.60;;;3.30;;
3873;SDS011;1952;50.872;6.692;2023-03-20T10:32:47;7.80;;;4.30;;
3873;SDS011;1952;50.872;6.692;2023-03-20T10:35:20;3.40;;;2.70;;
3873;SDS011;1952;50.872;6.692;2023-03-20T10:37:57;5.30;;;3.10;;
3873;SDS011;1952;50.872;6.692;2023-03-20T10:40:31;3.87;;;3.33;;
3873;SDS011;1952;50.872;6.692;2023-03-20T10:43:03;4.07;;;3.20;;
3873;SDS011;1952;50.872;6.692;2023-03-20T10:45:39;6.00;;;3.83;;
3873;SDS011;1952;50.872;6.692;2023-03-20T10:48:11;4.10;;;3.77;;
3873;SDS011;1952;50.872;6.692;2023-03-20T10:50:42;5.10;;;3.30;;
3873;SDS011;1952;50.872;6.692;2023-03-20T10:53:18;4.43;;;3.73;;
3873;SDS011;1952;50.872;6.692;2023-03-20T10:55:55;6.03;;;3.67;;
3873;SDS011;1952;50.872;6.692;2023-03-20T10:58:30;7.80;;;4.17;;
3873;SDS011;1952;50.872;6.692;2023-03-20T11:01:02;7.67;;;4.40;;
3873;SDS011;1952;50.872;6.692;2023-03-20T11:03:35;5.53;;;4.57;;
3873;SDS011;1952;50.872;6.692;2023-03-20T11:06:06;5.00;;;4.10;;
3873;SDS011;1952;50.872;6.692;2023-03-20T11:08:36;8.40;;;4.93;;
3873;SDS011;1952;50.872;6.692;2023-03-20T11:11:08;5.20;;;3.60;;
3873;SDS011;1952;50.872;6.692;2023-03-20T11:13:37;7.87;;;4.70;;
3873;SDS011;1952;50.872;6.692;2023-03-20T11:16:13;4.57;;;3.93;;
3873;SDS011;1952;50.872;6.692;2023-03-20T11:18:43;7.13;;;4.73;;
3873;SDS011;1952;50.872;6.692;2023-03-20T11:21:15;6.50;;;4.37;;
3873;SDS011;1952;50.872;6.692;2023-03-20T11:23:48;7.80;;;4.57;;
3873;SDS011;1952;50.872;6.692;2023-03-20T11:26:19;11.37;;;5.17;;
3873;SDS011;1952;50.872;6.692;2023-03-20T11:28:55;5.83;;;3.47;;
3873;SDS011;1952;50.872;6.692;2023-03-20T11:31:29;4.27;;;3.97;;
3873;SDS011;1952;50.872;6.692;2023-03-20T11:34:07;6.60;;;4.03;;
3873;SDS011;1952;50.872;6.692;2023-03-20T11:36:36;5.57;;;3.50;;
3873;SDS011;1952;50.872;6.692;2023-03-20T11:39:09;8.53;;;4.20;;
3873;SDS011;1952;50.872;6.692;2023-03-20T11:41:47;6.73;;;4.00;;
3873;SDS011;1952;50.872;6.692;2023-03-20T11:44:20;5.97;;;4.80;;
3873;SDS011;1952;50.872;6.692;2023-03-20T11:46:56;5.60;;;4.50;;
3873;SDS011;1952;50.872;6.692;2023-03-20T11:49:30;5.47;;;4.67;;
3873;SDS011;1952;50.872;6.692;2023-03-20T11:52:00;5.23;;;4.47;;
3873;SDS011;1952;50.872;6.692;2023-03-20T12:52:41;3.93;;;2.43;;
3873;SDS011;1952;50.872;6.692;2023-03-20T12:58:05;2.87;;;2.63;;
3873;SDS011;1952;50.872;6.692;2023-03-20T13:00:40;3.57;;;2.50;;
3873;SDS011;1952;50.872;6.692;2023-03-20T13:03:26;4.20;;;2.90;;
3873;SDS011;1952;50.872;6.692;2023-03-20T13:06:00;4.13;;;2.90;;
3873;SDS011;1952;50.872;6.692;2023-03-20T13:08:39;3.30;;;3.00;;
3873;SDS011;1952;50.872;6.692;2023-03-20T13:11:10;3.33;;;2.43;;
3873;SDS011;1952;50.872;6.692;2023-03-20T13:13:46;3.93;;;3.60;;
3873;SDS011;1952;50.872;6.692;2023-03-20T13:16:18;3.27;;;2.27;;
3873;SDS011;1952;50.872;6.692;2023-03-20T13:18:54;6.53;;;3.23;;
3873;SDS011;1952;50.872;6.692;2023-03-20T13:21:26;3.43;;;2.80;;
3873;SDS011;1952;50.872;6.692;2023-03-20T13:24:02;4.63;;;3.03;;
3873;SDS011;1952;50.872;6.692;2023-03-20T13:26:40;3.83;;;2.83;;
3873;SDS011;1952;50.872;6.692;2023-03-20T13:29:12;5.57;;;2.57;;
3873;SDS011;1952;50.872;6.692;2023-03-20T13:31:45;2.93;;;2.40;;
3873;SDS011;1952;50.872;6.692;2023-03-20T13:34:19;3.93;;;3.00;;
3873;SDS011;1952;50.872;6.692;2023-03-20T13:36:57;5.20;;;3.33;;
3873;SDS011;1952;50.872;6.692;2023-03-20T13:39:36;3.27;;;2.50;;
3873;SDS011;1952;50.872;6.692;2023-03-20T13:42:07;4.87;;;3.27;;
3873;SDS011;1952;50.872;6.692;2023-03-20T13:44:41;5.43;;;2.50;;
3873;SDS011;1952;50.872;6.692;2023-03-20T13:47:11;2.50;;;2.23;;
3873;SDS011;1952;50.872;6.692;2023-03-20T13:49:41;8.40;;;2.83;;
3873;SDS011;1952;50.872;6.692;2023-03-20T13:52:12;4.43;;;3.20;;
3873;SDS011;1952;50.872;6.692;2023-03-20T13:54:49;4.60;;;3.07;;
3873;SDS011;1952;50.872;6.692;2023-03-20T13:57:24;3.50;;;3.20;;
3873;SDS011;1952;50.872;6.692;2023-03-20T13:59:57;3.10;;;2.73;;
3873;SDS011;1952;50.872;6.692;2023-03-20T14:02:32;8.67;;;3.40;;
3873;SDS011;1952;50.872;6.692;2023-03-20T14:05:10;3.87;;;2.90;;
3873;SDS011;1952;50.872;6.692;2023-03-20T14:07:41;4.90;;;3.07;;
3873;SDS011;1952;50.872;6.692;2023-03-20T14:12:59;6.07;;;3.10;;
3873;SDS011;1952;50.872;6.692;2023-03-20T14:15:30;4.80;;;2.50;;
3873;SDS011;1952;50.872;6.692;2023-03-20T14:18:01;4.53;;;2.87;;
3873;SDS011;1952;50.872;6.692;2023-03-20T14:20:31;3.57;;;2.70;;
3873;SDS011;1952;50.872;6.692;2023-03-20T14:22:59;4.20;;;2.83;;
3873;SDS011;1952;50.872;6.692;2023-03-20T14:25:32;8.20;;;3.70;;
3873;SDS011;1952;50.872;6.692;2023-03-20T14:28:21;5.90;;;3.50;;
3873;SDS011;1952;50.872;6.692;2023-03-20T14:31:10;4.07;;;2.97;;
3873;SDS011;1952;50.872;6.692;2023-03-20T14:33:41;3.70;;;2.70;;
3873;SDS011;1952;50.872;6.692;2023-03-20T14:36:19;4.20;;;3.80;;
3873;SDS011;1952;50.872;6.692;2023-03-20T14:39:01;7.37;;;3.00;;
3873;SDS011;1952;50.872;6.692;2023-03-20T14:41:39;5.00;;;3.33;;
3873;SDS011;1952;50.872;6.692;2023-03-20T14:44:18;4.00;;;3.17;;
3873;SDS011;1952;50.872;6.692;2023-03-20T14:46:56;4.20;;;2.97;;
3873;SDS011;1952;50.872;6.692;2023-03-20T14:49:43;7.93;;;2.90;;
3873;SDS011;1952;50.872;6.692;2023-03-20T14:55:14;5.90;;;2.83;;
3873;SDS011;1952;50.872;6.692;2023-03-20T14:57:55;7.83;;;3.17;;
3873;SDS011;1952;50.872;6.692;2023-03-20T15:00:26;7.47;;;3.63;;
3873;SDS011;1952;50.872;6.692;2023-03-20T15:02:58;4.67;;;2.97;;
3873;SDS011;1952;50.872;6.692;2023-03-20T15:05:32;4.03;;;3.03;;
3873;SDS011;1952;50.872;6.692;2023-03-20T15:08:02;4.63;;;2.57;;
3873;SDS011;1952;50.872;6.692;2023-03-20T15:10:32;10.07;;;3.63;;
3873;SDS011;1952;50.872;6.692;2023-03-20T15:13:03;4.27;;;3.27;;
3873;SDS011;1952;50.872;6.692;2023-03-20T15:15:33;6.63;;;3.20;;
3873;SDS011;1952;50.872;6.692;2023-03-20T15:18:02;5.40;;;2.87;;
3873;SDS011;1952;50.872;6.692;2023-03-20T15:20:37;6.30;;;2.83;;
3873;SDS011;1952;50.872;6.692;2023-03-20T15:23:09;5.30;;;3.10;;
3873;SDS011;1952;50.872;6.692;2023-03-20T15:25:38;7.73;;;2.93;;
3873;SDS011;1952;50.872;6.692;2023-03-20T15:28:11;6.53;;;3.80;;
3873;SDS011;1952;50.872;6.692;2023-03-20T15:30:44;4.37;;;3.87;;
3873;SDS011;1952;50.872;6.692;2023-03-20T15:33:15;4.87;;;3.30;;
3873;SDS011;1952;50.872;6.692;2023-03-20T15:35:45;5.93;;;3.77;;
3873;SDS011;1952;50.872;6.692;2023-03-20T15:38:13;4.73;;;4.17;;
3873;SDS011;1952;50.872;6.692;2023-03-20T15:40:43;6.50;;;3.80;;
3873;SDS011;1952;50.872;6.692;2023-03-20T15:43:17;10.80;;;4.17;;
3873;SDS011;1952;50.872;6.692;2023-03-20T15:45:47;4.33;;;3.67;;
3873;SDS011;1952;50.872;6.692;2023-03-20T15:48:17;6.27;;;4.17;;
3873;SDS011;1952;50.872;6.692;2023-03-20T15:50:51;8.03;;;4.07;;
3873;SDS011;1952;50.872;6.692;2023-03-20T15:53:22;3.97;;;3.30;;
3873;SDS011;1952;50.872;6.692;2023-03-20T15:56:00;4.83;;;3.97;;
3873;SDS011;1952;50.872;6.692;2023-03-20T15:58:34;5.90;;;3.13;;
3873;SDS011;1952;50.872;6.692;2023-03-20T16:01:04;5.23;;;3.40;;
3873;SDS011;1952;50.872;6.692;2023-03-20T16:03:34;3.53;;;2.80;;
3873;SDS011;1952;50.872;6.692;2023-03-20T16:06:04;4.27;;;2.60;;
3873;SDS011;1952;50.872;6.692;2023-03-20T16:08:54;4.10;;;2.80;;
3873;SDS011;1952;50.872;6.692;2023-03-20T16:11:23;4.80;;;2.53;;
3873;SDS011;1952;50.872;6.692;2023-03-20T16:13:51;5.90;;;2.80;;
3873;SDS011;1952;50.872;6.692;2023-03-20T16:16:22;5.90;;;2.73;;
3873;SDS011;1952;50.872;6.692;2023-03-20T16:18:51;3.97;;;3.07;;
3873;SDS011;1952;50.872;6.692;2023-03-20T16:21:20;2.97;;;2.70;;
3873;SDS011;1952;50.872;6.692;2023-03-20T16:23:54;3.70;;;2.50;;
3873;SDS011;1952;50.872;6.692;2023-03-20T16:26:28;5.70;;;2.60;;
3873;SDS011;1952;50.872;6.692;2023-03-20T16:28:57;3.00;;;2.70;;
3873;SDS011;1952;50.872;6.692;2023-03-20T16:31:29;4.83;;;2.43;;
3873;SDS011;1952;50.872;6.692;2023-03-20T16:34:04;7.20;;;3.07;;
3873;SDS011;1952;50.872;6.692;2023-03-20T16:36:38;7.53;;;3.10;;
3873;SDS011;1952;50.872;6.692;2023-03-20T16:39:07;6.03;;;3.30;;
3873;SDS011;1952;50.872;6.692;2023-03-20T16:41:36;10.23;;;3.73;;
3873;SDS011;1952;50.872;6.692;2023-03-20T16:44:11;7.80;;;3.33;;
3873;SDS011;1952;50.872;6.692;2023-03-20T16:46:57;5.03;;;3.37;;
3873;SDS011;1952;50.872;6.692;2023-03-20T16:49:47;3.57;;;2.80;;
3873;SDS011;1952;50.872;6.692;2023-03-20T16:52:16;10.77;;;3.23;;
3873;SDS011;1952;50.872;6.692;2023-03-20T16:54:45;6.77;;;3.07;;
3873;SDS011;1952;50.872;6.692;2023-03-20T16:57:18;5.10;;;3.07;;
3873;SDS011;1952;50.872;6.692;2023-03-20T16:59:46;7.80;;;3.23;;
3873;SDS011;1952;50.872;6.692;2023-03-20T17:02:24;3.73;;;3.43;;
3873;SDS011;1952;50.872;6.692;2023-03-20T17:04:55;3.50;;;3.23;;
3873;SDS011;1952;50.872;6.692;2023-03-20T17:07:24;8.50;;;3.33;;
3873;SDS011;1952;50.872;6.692;2023-03-20T17:09:59;4.73;;;2.27;;
3873;SDS011;1952;50.872;6.692;2023-03-20T17:12:32;2.70;;;2.50;;
3873;SDS011;1952;50.872;6.692;2023-03-20T17:15:03;7.40;;;5.10;;
3873;SDS011;1952;50.872;6.692;2023-03-20T17:17:33;8.63;;;3.73;;
3873;SDS011;1952;50.872;6.692;2023-03-20T17:20:06;3.90;;;3.13;;
3873;SDS011;1952;50.872;6.692;2023-03-20T17:22:35;3.30;;;3.00;;
3873;SDS011;1952;50.872;6.692;2023-03-20T17:25:05;5.07;;;3.87;;
3873;SDS011;1952;50.872;6.692;2023-03-20T17:27:33;8.83;;;3.50;;
3873;SDS011;1952;50.872;6.692;2023-03-20T17:30:03;5.37;;;3.40;;
3873;SDS011;1952;50.872;6.692;2023-03-20T17:32:48;5.23;;;3.40;;
3873;SDS011;1952;50.872;6.692;2023-03-20T17:35:16;2.90;;;2.70;;
3873;SDS011;1952;50.872;6.692;2023-03-20T17:37:45;7.40;;;3.37;;
3873;SDS011;1952;50.872;6.692;2023-03-20T17:40:16;7.27;;;2.93;;
3873;SDS011;1952;50.872;6.692;2023-03-20T17:42:45;5.53;;;3.10;;
3873;SDS011;1952;50.872;6.692;2023-03-20T17:45:14;2.80;;;2.60;;
3873;SDS011;1952;50.872;6.692;2023-03-20T17:47:49;7.03;;;3.57;;
3873;SDS011;1952;50.872;6.692;2023-03-20T17:50:18;4.93;;;3.70;;
3873;SDS011;1952;50.872;6.692;2023-03-20T17:52:49;5.10;;;4.60;;
3873;SDS011;1952;50.872;6.692;2023-03-20T18:34:44;4.23;;;3.33;;
3873;SDS011;1952;50.872;6.692;2023-03-20T18:37:13;4.07;;;3.57;;
3873;SDS011;1952;50.872;6.692;2023-03-20T18:39:41;3.50;;;3.20;;
3873;SDS011;1952;50.872;6.692;2023-03-20T18:42:14;5.47;;;3.90;;
3873;SDS011;1952;50.872;6.692;2023-03-20T18:44:42;8.10;;;3.10;;
3873;SDS011;1952;50.872;6.692;2023-03-20T18:47:11;6.40;;;3.47;;
3873;SDS011;1952;50.872;6.692;2023-03-20T18:49:39;5.67;;;4.03;;
3873;SDS011;1952;50.872;6.692;2023-03-20T18:52:14;6.97;;;4.13;;
3873;SDS011;1952;50.872;6.692;2023-03-20T18:54:42;6.10;;;3.50;;
3873;SDS011;1952;50.872;6.692;2023-03-20T18:57:15;3.90;;;3.43;;
3873;SDS011;1952;50.872;6.692;2023-03-20T18:59:43;3.90;;;2.97;;
3873;SDS011;1952;50.872;6.692;2023-03-20T19:02:16;5.00;;;3.60;;
3873;SDS011;1952;50.872;6.692;2023-03-20T19:04:50;4.60;;;2.70;;
3873;SDS011;1952;50.872;6.692;2023-03-20T19:07:27;3.80;;;3.10;;
3873;SDS011;1952;50.872;6.692;2023-03-20T19:09:55;5.60;;;3.17;;
3873;SDS011;1952;50.872;6.692;2023-03-20T19:12:26;4.73;;;3.50;;
3873;SDS011;1952;50.872;6.692;2023-03-20T19:14:56;4.90;;;3.43;;
3873;SDS011;1952;50.872;6.692;2023-03-20T19:17:30;5.83;;;3.33;;
3873;SDS011;1952;50.872;6.692;2023-03-20T19:19:58;3.90;;;3.37;;
3873;SDS011;1952;50.872;6.692;2023-03-20T19:22:27;6.23;;;3.50;;
3873;SDS011;1952;50.872;6.692;2023-03-20T19:24:55;3.47;;;3.17;;
3873;SDS011;1952;50.872;6.692;2023-03-20T19:27:24;4.33;;;3.93;;
3873;SDS011;1952;50.872;6.692;2023-03-20T19:29:52;6.03;;;4.80;;
3873;SDS011;1952;50.872;6.692;2023-03-20T19:32:22;3.97;;;3.67;;
3873;SDS011;1952;50.872;6.692;2023-03-20T19:34:56;4.53;;;3.97;;
3873;SDS011;1952;50.872;6.692;2023-03-20T19:37:45;10.97;;;6.30;;
3873;SDS011;1952;50.872;6.692;2023-03-20T19:40:26;8.77;;;6.23;;
3873;SDS011;1952;50.872;6.692;2023-03-20T19:42:57;7.00;;;5.40;;
3873;SDS011;1952;50.872;6.692;2023-03-20T19:45:31;7.43;;;6.27;;